sensor_id;sensor_type;location;lat;lon;timestamp;P1;durP1;ratioP1;P2;durP2;ratioP2
36449;SDS011;22475;51.390;7.180;2023-05-08T00:00:57;1.50;;;1.40;;
36449;SDS011;22475;51.390;7.180;2023-05-08T00:03:24;3.67;;;1.98;;
36449;SDS011;22475;51.390;7.180;2023-05-08T00:05:51;1.95;;;1.85;;
36449;SDS011;22475;51.390;7.180;2023-05-08T00:08:20;1.63;;;1.52;;
36449;SDS011;22475;51.390;7.180;2023-05-08T00:10:48;1.63;;;1.52;;
36449;SDS011;22475;51.390;7.180;2023-05-08T00:13:15;1.63;;;1.52;;
36449;SDS011;22475;51.390;7.180;2023-05-08T00:15:42;1.52;;;1.20;;
36449;SDS011;22475;51.390;7.180;2023-05-08T00:18:08;2.05;;;1.95;;
36449;SDS011;22475;51.390;7.180;2023-05-08T00:20:35;2.63;;;2.13;;
36449;SDS011;22475;51.390;7.180;2023-05-08T00:23:02;2.92;;;1.92;;
36449;SDS011;22475;51.390;7.180;2023-05-08T00:25:30;1.30;;;1.20;;
36449;SDS011;22475;51.390;7.180;2023-05-08T00:27:57;1.75;;;1.65;;
36449;SDS011;22475;51.390;7.180;2023-05-08T00:30:24;2.83;;;1.63;;
36449;SDS011;22475;51.390;7.180;2023-05-08T00:32:51;2.20;;;2.10;;
36449;SDS011;22475;51.390;7.180;2023-05-08T00:35:18;1.40;;;1.30;;
36449;SDS011;22475;51.390;7.180;2023-05-08T00:37:44;1.50;;;1.40;;
36449;SDS011;22475;51.390;7.180;2023-05-08T00:40:11;2.00;;;1.90;;
36449;SDS011;22475;51.390;7.180;2023-05-08T00:42:39;1.35;;;1.30;;
36449;SDS011;22475;51.390;7.180;2023-05-08T00:45:07;2.35;;;1.80;;
36449;SDS011;22475;51.390;7.180;2023-05-08T00:47:34;1.58;;;1.48;;
36449;SDS011;22475;51.390;7.180;2023-05-08T00:50:01;1.73;;;1.60;;
36449;SDS011;22475;51.390;7.180;2023-05-08T00:52:28;3.83;;;2.25;;
36449;SDS011;22475;51.390;7.180;2023-05-08T00:54:58;2.30;;;2.10;;
36449;SDS011;22475;51.390;7.180;2023-05-08T00:57:25;2.78;;;2.50;;
36449;SDS011;22475;51.390;7.180;2023-05-08T00:59:55;2.15;;;2.05;;
36449;SDS011;22475;51.390;7.180;2023-05-08T01:02:24;1.60;;;1.50;;
36449;SDS011;22475;51.390;7.180;2023-05-08T01:04:51;1.90;;;1.80;;
36449;SDS011;22475;51.390;7.180;2023-05-08T01:07:19;2.58;;;2.08;;
36449;SDS011;22475;51.390;7.180;2023-05-08T01:09:47;2.10;;;1.98;;
36449;SDS011;22475;51.390;7.180;2023-05-08T01:12:15;2.30;;;2.10;;
36449;SDS011;22475;51.390;7.180;2023-05-08T01:14:50;3.58;;;1.83;;
36449;SDS011;22475;51.390;7.180;2023-05-08T01:17:29;7.95;;;2.35;;
36449;SDS011;22475;51.390;7.180;2023-05-08T01:20:18;7.53;;;2.38;;
36449;SDS011;22475;51.390;7.180;2023-05-08T01:26:24;3.38;;;2.28;;
36449;SDS011;22475;51.390;7.180;2023-05-08T01:29:26;2.03;;;1.92;;
36449;SDS011;22475;51.390;7.180;2023-05-08T01:32:11;2.88;;;2.67;;
36449;SDS011;22475;51.390;7.180;2023-05-08T01:34:43;5.25;;;2.75;;
36449;SDS011;22475;51.390;7.180;2023-05-08T01:37:18;2.80;;;2.60;;
36449;SDS011;22475;51.390;7.180;2023-05-08T01:39:52;2.03;;;1.88;;
36449;SDS011;22475;51.390;7.180;2023-05-08T01:42:29;2.55;;;2.35;;
36449;SDS011;22475;51.390;7.180;2023-05-08T01:45:04;6.03;;;2.53;;
36449;SDS011;22475;51.390;7.180;2023-05-08T01:47:40;2.30;;;2.20;;
36449;SDS011;22475;51.390;7.180;2023-05-08T01:50:10;2.80;;;2.60;;
36449;SDS011;22475;51.390;7.180;2023-05-08T01:52:42;1.90;;;1.80;;
36449;SDS011;22475;51.390;7.180;2023-05-08T01:55:15;3.22;;;2.92;;
36449;SDS011;22475;51.390;7.180;2023-05-08T01:57:46;3.17;;;2.97;;
36449;SDS011;22475;51.390;7.180;2023-05-08T02:00:18;4.95;;;2.00;;
36449;SDS011;22475;51.390;7.180;2023-05-08T02:02:48;4.63;;;3.13;;
36449;SDS011;22475;51.390;7.180;2023-05-08T02:05:16;3.20;;;2.65;;
36449;SDS011;22475;51.390;7.180;2023-05-08T02:07:45;2.72;;;2.03;;
36449;SDS011;22475;51.390;7.180;2023-05-08T02:10:14;2.42;;;2.25;;
36449;SDS011;22475;51.390;7.180;2023-05-08T02:12:42;2.90;;;2.70;;
36449;SDS011;22475;51.390;7.180;2023-05-08T02:15:10;3.53;;;3.30;;
36449;SDS011;22475;51.390;7.180;2023-05-08T02:17:39;3.22;;;2.92;;
36449;SDS011;22475;51.390;7.180;2023-05-08T02:20:08;3.42;;;3.13;;
36449;SDS011;22475;51.390;7.180;2023-05-08T02:22:39;3.83;;;3.53;;
36449;SDS011;22475;51.390;7.180;2023-05-08T02:25:08;3.63;;;3.33;;
36449;SDS011;22475;51.390;7.180;2023-05-08T02:27:38;3.28;;;3.08;;
36449;SDS011;22475;51.390;7.180;2023-05-08T02:30:07;9.57;;;3.33;;
36449;SDS011;22475;51.390;7.180;2023-05-08T02:32:36;2.00;;;1.90;;
36449;SDS011;22475;51.390;7.180;2023-05-08T02:35:04;2.78;;;2.58;;
36449;SDS011;22475;51.390;7.180;2023-05-08T02:37:33;2.67;;;2.47;;
36449;SDS011;22475;51.390;7.180;2023-05-08T02:40:00;2.40;;;2.28;;
36449;SDS011;22475;51.390;7.180;2023-05-08T02:42:29;2.60;;;2.38;;
36449;SDS011;22475;51.390;7.180;2023-05-08T02:44:56;2.58;;;2.22;;
36449;SDS011;22475;51.390;7.180;2023-05-08T02:47:24;8.00;;;2.30;;
36449;SDS011;22475;51.390;7.180;2023-05-08T02:49:55;2.92;;;2.33;;
36449;SDS011;22475;51.390;7.180;2023-05-08T02:52:29;7.60;;;2.90;;
36449;SDS011;22475;51.390;7.180;2023-05-08T02:55:01;2.45;;;1.88;;
36449;SDS011;22475;51.390;7.180;2023-05-08T02:57:34;3.95;;;3.65;;
36449;SDS011;22475;51.390;7.180;2023-05-08T03:00:10;4.55;;;3.30;;
36449;SDS011;22475;51.390;7.180;2023-05-08T03:02:41;2.70;;;2.50;;
36449;SDS011;22475;51.390;7.180;2023-05-08T03:05:14;8.55;;;4.00;;
36449;SDS011;22475;51.390;7.180;2023-05-08T03:07:46;5.55;;;4.50;;
36449;SDS011;22475;51.390;7.180;2023-05-08T03:10:18;8.77;;;5.43;;
36449;SDS011;22475;51.390;7.180;2023-05-08T03:12:47;8.93;;;6.25;;
36449;SDS011;22475;51.390;7.180;2023-05-08T03:15:18;13.05;;;7.60;;
36449;SDS011;22475;51.390;7.180;2023-05-08T03:17:51;4.47;;;4.18;;
36449;SDS011;22475;51.390;7.180;2023-05-08T03:20:21;5.22;;;4.70;;
36449;SDS011;22475;51.390;7.180;2023-05-08T03:22:51;5.28;;;4.78;;
36449;SDS011;22475;51.390;7.180;2023-05-08T03:25:21;5.63;;;4.78;;
36449;SDS011;22475;51.390;7.180;2023-05-08T03:27:48;5.75;;;4.85;;
36449;SDS011;22475;51.390;7.180;2023-05-08T03:30:16;5.38;;;4.88;;
36449;SDS011;22475;51.390;7.180;2023-05-08T03:32:45;4.20;;;3.83;;
36449;SDS011;22475;51.390;7.180;2023-05-08T03:35:14;3.63;;;3.33;;
36449;SDS011;22475;51.390;7.180;2023-05-08T03:37:42;2.88;;;2.67;;
36449;SDS011;22475;51.390;7.180;2023-05-08T03:40:11;8.10;;;3.95;;
36449;SDS011;22475;51.390;7.180;2023-05-08T03:42:38;3.38;;;3.17;;
36449;SDS011;22475;51.390;7.180;2023-05-08T03:45:06;8.52;;;6.00;;
36449;SDS011;22475;51.390;7.180;2023-05-08T03:47:37;4.73;;;4.27;;
36449;SDS011;22475;51.390;7.180;2023-05-08T03:50:05;3.70;;;3.40;;
36449;SDS011;22475;51.390;7.180;2023-05-08T03:52:34;2.90;;;2.70;;
36449;SDS011;22475;51.390;7.180;2023-05-08T03:55:01;4.07;;;3.80;;
36449;SDS011;22475;51.390;7.180;2023-05-08T03:57:30;3.45;;;3.15;;
36449;SDS011;22475;51.390;7.180;2023-05-08T04:00:02;4.80;;;3.40;;
36449;SDS011;22475;51.390;7.180;2023-05-08T04:02:35;9.65;;;3.33;;
36449;SDS011;22475;51.390;7.180;2023-05-08T04:05:09;5.47;;;4.38;;
36449;SDS011;22475;51.390;7.180;2023-05-08T04:07:46;3.03;;;2.72;;
36449;SDS011;22475;51.390;7.180;2023-05-08T04:10:19;6.07;;;3.88;;
36449;SDS011;22475;51.390;7.180;2023-05-08T04:12:53;3.75;;;2.75;;
36449;SDS011;22475;51.390;7.180;2023-05-08T04:15:28;3.20;;;3.00;;
36449;SDS011;22475;51.390;7.180;2023-05-08T04:17:58;3.42;;;3.13;;
36449;SDS011;22475;51.390;7.180;2023-05-08T04:20:29;3.92;;;3.63;;
36449;SDS011;22475;51.390;7.180;2023-05-08T04:22:57;3.97;;;3.45;;
36449;SDS011;22475;51.390;7.180;2023-05-08T04:25:25;3.65;;;3.03;;
36449;SDS011;22475;51.390;7.180;2023-05-08T04:27:55;4.15;;;3.83;;
36449;SDS011;22475;51.390;7.180;2023-05-08T04:30:23;6.68;;;3.97;;
36449;SDS011;22475;51.390;7.180;2023-05-08T04:32:51;3.83;;;3.40;;
36449;SDS011;22475;51.390;7.180;2023-05-08T04:35:18;4.30;;;3.90;;
36449;SDS011;22475;51.390;7.180;2023-05-08T04:37:45;2.60;;;2.40;;
36449;SDS011;22475;51.390;7.180;2023-05-08T04:40:12;3.05;;;2.85;;
36449;SDS011;22475;51.390;7.180;2023-05-08T04:42:39;2.58;;;2.38;;
36449;SDS011;22475;51.390;7.180;2023-05-08T04:45:08;5.35;;;2.75;;
36449;SDS011;22475;51.390;7.180;2023-05-08T04:47:35;4.55;;;2.90;;
36449;SDS011;22475;51.390;7.180;2023-05-08T04:50:02;4.18;;;3.25;;
36449;SDS011;22475;51.390;7.180;2023-05-08T04:52:29;3.60;;;3.30;;
36449;SDS011;22475;51.390;7.180;2023-05-08T04:54:57;3.42;;;3.13;;
36449;SDS011;22475;51.390;7.180;2023-05-08T04:57:23;2.45;;;2.25;;
36449;SDS011;22475;51.390;7.180;2023-05-08T04:59:50;3.33;;;2.10;;
36449;SDS011;22475;51.390;7.180;2023-05-08T05:02:18;2.85;;;2.65;;
36449;SDS011;22475;51.390;7.180;2023-05-08T05:04:45;2.63;;;2.42;;
36449;SDS011;22475;51.390;7.180;2023-05-08T05:07:12;3.17;;;2.88;;
36449;SDS011;22475;51.390;7.180;2023-05-08T05:09:38;2.65;;;2.45;;
36449;SDS011;22475;51.390;7.180;2023-05-08T05:12:05;3.60;;;2.78;;
36449;SDS011;22475;51.390;7.180;2023-05-08T05:14:32;2.78;;;2.53;;
36449;SDS011;22475;51.390;7.180;2023-05-08T05:16:59;4.05;;;2.53;;
36449;SDS011;22475;51.390;7.180;2023-05-08T05:19:27;2.58;;;2.38;;
36449;SDS011;22475;51.390;7.180;2023-05-08T05:21:54;2.45;;;2.25;;
36449;SDS011;22475;51.390;7.180;2023-05-08T05:24:21;2.50;;;2.30;;
36449;SDS011;22475;51.390;7.180;2023-05-08T05:26:47;2.60;;;2.40;;
36449;SDS011;22475;51.390;7.180;2023-05-08T05:29:14;2.70;;;2.50;;
36449;SDS011;22475;51.390;7.180;2023-05-08T05:31:41;3.08;;;2.75;;
36449;SDS011;22475;51.390;7.180;2023-05-08T05:34:08;2.55;;;2.45;;
36449;SDS011;22475;51.390;7.180;2023-05-08T05:36:36;2.42;;;2.22;;
36449;SDS011;22475;51.390;7.180;2023-05-08T05:39:03;2.63;;;2.40;;
36449;SDS011;22475;51.390;7.180;2023-05-08T05:41:29;2.92;;;2.30;;
36449;SDS011;22475;51.390;7.180;2023-05-08T05:43:56;3.10;;;2.47;;
36449;SDS011;22475;51.390;7.180;2023-05-08T05:46:23;5.45;;;4.97;;
36449;SDS011;22475;51.390;7.180;2023-05-08T05:48:52;8.07;;;6.53;;
36449;SDS011;22475;51.390;7.180;2023-05-08T05:51:19;5.20;;;4.70;;
36449;SDS011;22475;51.390;7.180;2023-05-08T05:53:47;7.20;;;5.70;;
36449;SDS011;22475;51.390;7.180;2023-05-08T05:56:13;7.75;;;5.32;;
36449;SDS011;22475;51.390;7.180;2023-05-08T05:58:40;9.13;;;6.10;;
36449;SDS011;22475;51.390;7.180;2023-05-08T06:01:09;5.07;;;4.22;;
36449;SDS011;22475;51.390;7.180;2023-05-08T06:03:36;5.40;;;4.90;;
36449;SDS011;22475;51.390;7.180;2023-05-08T06:06:02;6.47;;;3.40;;
36449;SDS011;22475;51.390;7.180;2023-05-08T06:08:29;4.35;;;3.58;;
36449;SDS011;22475;51.390;7.180;2023-05-08T06:10:57;5.00;;;4.20;;
36449;SDS011;22475;51.390;7.180;2023-05-08T06:13:24;4.32;;;4.03;;
36449;SDS011;22475;51.390;7.180;2023-05-08T06:15:52;4.45;;;4.05;;
36449;SDS011;22475;51.390;7.180;2023-05-08T06:18:21;5.15;;;4.63;;
36449;SDS011;22475;51.390;7.180;2023-05-08T06:20:47;7.47;;;5.25;;
36449;SDS011;22475;51.390;7.180;2023-05-08T06:23:14;5.38;;;3.97;;
36449;SDS011;22475;51.390;7.180;2023-05-08T06:25:41;10.07;;;5.35;;
36449;SDS011;22475;51.390;7.180;2023-05-08T06:28:09;5.72;;;4.35;;
36449;SDS011;22475;51.390;7.180;2023-05-08T06:30:36;4.28;;;3.95;;
36449;SDS011;22475;51.390;7.180;2023-05-08T06:33:02;6.68;;;4.28;;
36449;SDS011;22475;51.390;7.180;2023-05-08T06:35:29;3.85;;;3.53;;
36449;SDS011;22475;51.390;7.180;2023-05-08T06:37:56;3.30;;;2.95;;
36449;SDS011;22475;51.390;7.180;2023-05-08T06:40:23;3.45;;;3.15;;
36449;SDS011;22475;51.390;7.180;2023-05-08T06:42:50;5.32;;;3.17;;
36449;SDS011;22475;51.390;7.180;2023-05-08T06:45:18;4.00;;;3.63;;
36449;SDS011;22475;51.390;7.180;2023-05-08T06:47:45;4.05;;;3.13;;
36449;SDS011;22475;51.390;7.180;2023-05-08T06:50:12;3.75;;;3.45;;
36449;SDS011;22475;51.390;7.180;2023-05-08T06:52:39;4.25;;;3.78;;
36449;SDS011;22475;51.390;7.180;2023-05-08T06:55:06;4.97;;;3.78;;
36449;SDS011;22475;51.390;7.180;2023-05-08T06:57:33;3.95;;;3.60;;
36449;SDS011;22475;51.390;7.180;2023-05-08T07:00:00;4.35;;;3.97;;
36449;SDS011;22475;51.390;7.180;2023-05-08T07:02:29;4.10;;;3.05;;
36449;SDS011;22475;51.390;7.180;2023-05-08T07:04:56;3.30;;;2.95;;
36449;SDS011;22475;51.390;7.180;2023-05-08T07:07:23;5.70;;;2.20;;
36449;SDS011;22475;51.390;7.180;2023-05-08T07:09:49;3.20;;;2.92;;
36449;SDS011;22475;51.390;7.180;2023-05-08T07:12:16;2.22;;;2.13;;
36449;SDS011;22475;51.390;7.180;2023-05-08T07:14:43;2.67;;;1.55;;
36449;SDS011;22475;51.390;7.180;2023-05-08T07:17:10;2.47;;;2.22;;
36449;SDS011;22475;51.390;7.180;2023-05-08T07:19:38;2.50;;;2.30;;
36449;SDS011;22475;51.390;7.180;2023-05-08T07:22:05;2.05;;;1.90;;
36449;SDS011;22475;51.390;7.180;2023-05-08T07:24:32;1.73;;;1.63;;
36449;SDS011;22475;51.390;7.180;2023-05-08T07:26:59;2.30;;;1.73;;
36449;SDS011;22475;51.390;7.180;2023-05-08T07:29:25;2.00;;;1.90;;
36449;SDS011;22475;51.390;7.180;2023-05-08T07:31:52;1.80;;;1.70;;
36449;SDS011;22475;51.390;7.180;2023-05-08T07:34:19;1.60;;;1.50;;
36449;SDS011;22475;51.390;7.180;2023-05-08T07:36:47;1.98;;;1.85;;
36449;SDS011;22475;51.390;7.180;2023-05-08T07:39:14;1.88;;;1.75;;
36449;SDS011;22475;51.390;7.180;2023-05-08T07:41:41;2.55;;;1.83;;
36449;SDS011;22475;51.390;7.180;2023-05-08T07:44:07;1.88;;;1.75;;
36449;SDS011;22475;51.390;7.180;2023-05-08T07:46:34;1.90;;;1.73;;
36449;SDS011;22475;51.390;7.180;2023-05-08T07:49:01;2.30;;;2.00;;
36449;SDS011;22475;51.390;7.180;2023-05-08T07:51:28;2.28;;;2.17;;
36449;SDS011;22475;51.390;7.180;2023-05-08T07:53:57;2.30;;;2.08;;
36449;SDS011;22475;51.390;7.180;2023-05-08T07:56:23;2.47;;;1.77;;
36449;SDS011;22475;51.390;7.180;2023-05-08T07:58:51;1.75;;;1.65;;
36449;SDS011;22475;51.390;7.180;2023-05-08T08:01:18;4.13;;;1.70;;
36449;SDS011;22475;51.390;7.180;2023-05-08T08:03:45;1.98;;;1.88;;
36449;SDS011;22475;51.390;7.180;2023-05-08T08:06:11;1.60;;;1.50;;
36449;SDS011;22475;51.390;7.180;2023-05-08T08:08:39;2.40;;;1.77;;
36449;SDS011;22475;51.390;7.180;2023-05-08T08:11:07;2.03;;;1.92;;
36449;SDS011;22475;51.390;7.180;2023-05-08T08:13:33;1.85;;;1.75;;
36449;SDS011;22475;51.390;7.180;2023-05-08T08:16:00;1.92;;;1.83;;
36449;SDS011;22475;51.390;7.180;2023-05-08T08:18:28;1.85;;;1.75;;
36449;SDS011;22475;51.390;7.180;2023-05-08T08:20:55;2.22;;;1.90;;
36449;SDS011;22475;51.390;7.180;2023-05-08T08:23:21;1.88;;;1.77;;
36449;SDS011;22475;51.390;7.180;2023-05-08T08:25:48;1.73;;;1.63;;
36449;SDS011;22475;51.390;7.180;2023-05-08T08:28:18;2.40;;;2.08;;
36449;SDS011;22475;51.390;7.180;2023-05-08T08:30:45;1.63;;;1.52;;
36449;SDS011;22475;51.390;7.180;2023-05-08T08:33:12;2.30;;;2.10;;
36449;SDS011;22475;51.390;7.180;2023-05-08T08:35:39;3.22;;;1.80;;
36449;SDS011;22475;51.390;7.180;2023-05-08T08:38:06;1.83;;;1.73;;
36449;SDS011;22475;51.390;7.180;2023-05-08T08:40:37;2.42;;;1.75;;
36449;SDS011;22475;51.390;7.180;2023-05-08T08:43:05;1.98;;;1.88;;
36449;SDS011;22475;51.390;7.180;2023-05-08T08:45:33;2.30;;;2.20;;
36449;SDS011;22475;51.390;7.180;2023-05-08T08:48:02;2.13;;;1.70;;
36449;SDS011;22475;51.390;7.180;2023-05-08T08:50:30;2.17;;;1.98;;
36449;SDS011;22475;51.390;7.180;2023-05-08T08:53:00;1.55;;;1.45;;
36449;SDS011;22475;51.390;7.180;2023-05-08T08:55:32;1.77;;;1.67;;
36449;SDS011;22475;51.390;7.180;2023-05-08T08:58:04;1.95;;;1.85;;
36449;SDS011;22475;51.390;7.180;2023-05-08T09:00:40;2.10;;;2.00;;
36449;SDS011;22475;51.390;7.180;2023-05-08T09:03:07;1.70;;;1.60;;
36449;SDS011;22475;51.390;7.180;2023-05-08T09:05:35;1.77;;;1.67;;
36449;SDS011;22475;51.390;7.180;2023-05-08T09:08:02;2.10;;;1.90;;
36449;SDS011;22475;51.390;7.180;2023-05-08T09:10:31;2.70;;;2.30;;
36449;SDS011;22475;51.390;7.180;2023-05-08T09:12:58;2.05;;;1.95;;
36449;SDS011;22475;51.390;7.180;2023-05-08T09:15:24;2.17;;;2.08;;
36449;SDS011;22475;51.390;7.180;2023-05-08T09:17:52;1.90;;;1.50;;
36449;SDS011;22475;51.390;7.180;2023-05-08T09:20:19;1.85;;;1.75;;
36449;SDS011;22475;51.390;7.180;2023-05-08T09:22:46;1.77;;;1.67;;
36449;SDS011;22475;51.390;7.180;2023-05-08T09:25:14;2.55;;;1.70;;
36449;SDS011;22475;51.390;7.180;2023-05-08T09:27:42;2.28;;;1.80;;
36449;SDS011;22475;51.390;7.180;2023-05-08T09:30:10;2.10;;;1.95;;
36449;SDS011;22475;51.390;7.180;2023-05-08T09:32:39;1.52;;;1.42;;
36449;SDS011;22475;51.390;7.180;2023-05-08T09:35:08;1.77;;;1.58;;
36449;SDS011;22475;51.390;7.180;2023-05-08T09:37:37;1.70;;;1.60;;
36449;SDS011;22475;51.390;7.180;2023-05-08T09:40:14;2.15;;;2.00;;
36449;SDS011;22475;51.390;7.180;2023-05-08T09:42:42;2.05;;;1.95;;
36449;SDS011;22475;51.390;7.180;2023-05-08T09:45:09;1.75;;;1.65;;
36449;SDS011;22475;51.390;7.180;2023-05-08T09:47:36;2.03;;;1.92;;
36449;SDS011;22475;51.390;7.180;2023-05-08T09:50:04;1.90;;;1.80;;
36449;SDS011;22475;51.390;7.180;2023-05-08T09:52:34;2.00;;;1.80;;
36449;SDS011;22475;51.390;7.180;2023-05-08T09:55:02;2.30;;;2.10;;
36449;SDS011;22475;51.390;7.180;2023-05-08T09:57:32;4.82;;;1.90;;
36449;SDS011;22475;51.390;7.180;2023-05-08T10:00:00;2.00;;;1.90;;
36449;SDS011;22475;51.390;7.180;2023-05-08T10:02:30;2.05;;;1.73;;
36449;SDS011;22475;51.390;7.180;2023-05-08T10:04:56;2.03;;;1.80;;
36449;SDS011;22475;51.390;7.180;2023-05-08T10:07:27;3.35;;;1.80;;
36449;SDS011;22475;51.390;7.180;2023-05-08T10:09:59;1.98;;;1.83;;
36449;SDS011;22475;51.390;7.180;2023-05-08T10:12:27;1.52;;;1.42;;
36449;SDS011;22475;51.390;7.180;2023-05-08T10:14:54;2.03;;;1.90;;
36449;SDS011;22475;51.390;7.180;2023-05-08T10:17:25;2.38;;;1.88;;
36449;SDS011;22475;51.390;7.180;2023-05-08T10:19:57;1.70;;;1.60;;
36449;SDS011;22475;51.390;7.180;2023-05-08T10:22:26;1.70;;;1.60;;
36449;SDS011;22475;51.390;7.180;2023-05-08T10:24:55;1.67;;;1.45;;
36449;SDS011;22475;51.390;7.180;2023-05-08T10:27:32;2.00;;;1.90;;
36449;SDS011;22475;51.390;7.180;2023-05-08T10:30:04;1.75;;;1.65;;
36449;SDS011;22475;51.390;7.180;2023-05-08T10:32:34;1.80;;;1.70;;
36449;SDS011;22475;51.390;7.180;2023-05-08T10:35:06;1.58;;;1.48;;
36449;SDS011;22475;51.390;7.180;2023-05-08T10:37:35;1.85;;;1.75;;
36449;SDS011;22475;51.390;7.180;2023-05-08T10:40:02;2.05;;;1.92;;
36449;SDS011;22475;51.390;7.180;2023-05-08T10:42:31;1.90;;;1.77;;
36449;SDS011;22475;51.390;7.180;2023-05-08T10:45:00;2.13;;;1.90;;
36449;SDS011;22475;51.390;7.180;2023-05-08T10:47:29;1.85;;;1.70;;
36449;SDS011;22475;51.390;7.180;2023-05-08T10:50:08;1.90;;;1.80;;
36449;SDS011;22475;51.390;7.180;2023-05-08T10:52:46;1.60;;;1.50;;
36449;SDS011;22475;51.390;7.180;2023-05-08T10:55:19;1.85;;;1.40;;
36449;SDS011;22475;51.390;7.180;2023-05-08T10:58:05;2.03;;;1.92;;
36449;SDS011;22475;51.390;7.180;2023-05-08T11:03:42;2.28;;;2.08;;
36449;SDS011;22475;51.390;7.180;2023-05-08T11:06:09;1.73;;;1.63;;
36449;SDS011;22475;51.390;7.180;2023-05-08T11:08:44;2.28;;;2.13;;
36449;SDS011;22475;51.390;7.180;2023-05-08T11:11:15;2.25;;;1.45;;
36449;SDS011;22475;51.390;7.180;2023-05-08T11:13:51;1.63;;;1.52;;
36449;SDS011;22475;51.390;7.180;2023-05-08T11:19:21;1.67;;;1.58;;
36449;SDS011;22475;51.390;7.180;2023-05-08T11:24:37;4.10;;;1.90;;
36449;SDS011;22475;51.390;7.180;2023-05-08T11:27:04;2.00;;;1.90;;
36449;SDS011;22475;51.390;7.180;2023-05-08T11:29:33;1.80;;;1.70;;
36449;SDS011;22475;51.390;7.180;2023-05-08T11:32:00;1.77;;;1.67;;
36449;SDS011;22475;51.390;7.180;2023-05-08T11:34:45;1.67;;;1.58;;
36449;SDS011;22475;51.390;7.180;2023-05-08T11:37:17;1.92;;;1.83;;
36449;SDS011;22475;51.390;7.180;2023-05-08T11:39:45;1.67;;;1.58;;
36449;SDS011;22475;51.390;7.180;2023-05-08T11:45:03;1.52;;;1.42;;
36449;SDS011;22475;51.390;7.180;2023-05-08T11:47:36;1.95;;;1.85;;
36449;SDS011;22475;51.390;7.180;2023-05-08T11:50:06;1.80;;;1.70;;
36449;SDS011;22475;51.390;7.180;2023-05-08T11:52:34;3.72;;;1.63;;
36449;SDS011;22475;51.390;7.180;2023-05-08T11:55:02;1.40;;;1.30;;
36449;SDS011;22475;51.390;7.180;2023-05-08T11:57:30;2.10;;;1.95;;
36449;SDS011;22475;51.390;7.180;2023-05-08T11:59:57;1.58;;;1.48;;
36449;SDS011;22475;51.390;7.180;2023-05-08T12:02:36;2.22;;;1.85;;
36449;SDS011;22475;51.390;7.180;2023-05-08T12:05:03;1.52;;;1.42;;
36449;SDS011;22475;51.390;7.180;2023-05-08T12:07:30;1.65;;;1.55;;
36449;SDS011;22475;51.390;7.180;2023-05-08T12:09:59;1.58;;;1.45;;
36449;SDS011;22475;51.390;7.180;2023-05-08T12:12:34;1.77;;;1.67;;
36449;SDS011;22475;51.390;7.180;2023-05-08T12:15:04;1.67;;;1.58;;
36449;SDS011;22475;51.390;7.180;2023-05-08T12:17:32;2.67;;;1.90;;
36449;SDS011;22475;51.390;7.180;2023-05-08T12:20:09;1.35;;;1.25;;
36449;SDS011;22475;51.390;7.180;2023-05-08T12:22:37;1.70;;;1.60;;
36449;SDS011;22475;51.390;7.180;2023-05-08T12:25:04;1.80;;;1.65;;
36449;SDS011;22475;51.390;7.180;2023-05-08T12:27:32;1.63;;;1.52;;
36449;SDS011;22475;51.390;7.180;2023-05-08T12:29:59;1.48;;;1.38;;
36449;SDS011;22475;51.390;7.180;2023-05-08T12:32:26;2.25;;;2.05;;
36449;SDS011;22475;51.390;7.180;2023-05-08T12:34:53;3.45;;;1.38;;
36449;SDS011;22475;51.390;7.180;2023-05-08T12:37:26;2.03;;;1.92;;
36449;SDS011;22475;51.390;7.180;2023-05-08T12:39:53;1.60;;;1.50;;
36449;SDS011;22475;51.390;7.180;2023-05-08T12:42:20;1.80;;;1.70;;
36449;SDS011;22475;51.390;7.180;2023-05-08T12:44:50;1.70;;;1.60;;
36449;SDS011;22475;51.390;7.180;2023-05-08T12:49:44;2.05;;;1.95;;
36449;SDS011;22475;51.390;7.180;2023-05-08T12:52:13;1.95;;;1.65;;
36449;SDS011;22475;51.390;7.180;2023-05-08T12:54:46;1.30;;;1.20;;
36449;SDS011;22475;51.390;7.180;2023-05-08T12:57:14;1.83;;;1.73;;
36449;SDS011;22475;51.390;7.180;2023-05-08T12:59:42;2.50;;;1.90;;
36449;SDS011;22475;51.390;7.180;2023-05-08T13:02:13;1.33;;;1.20;;
36449;SDS011;22475;51.390;7.180;2023-05-08T13:04:41;1.60;;;1.50;;
36449;SDS011;22475;51.390;7.180;2023-05-08T13:07:08;1.70;;;1.60;;
36449;SDS011;22475;51.390;7.180;2023-05-08T13:09:35;1.48;;;1.38;;
36449;SDS011;22475;51.390;7.180;2023-05-08T13:12:04;1.63;;;1.52;;
36449;SDS011;22475;51.390;7.180;2023-05-08T13:14:31;1.67;;;1.58;;
36449;SDS011;22475;51.390;7.180;2023-05-08T13:16:58;1.80;;;1.70;;
36449;SDS011;22475;51.390;7.180;2023-05-08T13:19:25;1.50;;;1.40;;
36449;SDS011;22475;51.390;7.180;2023-05-08T13:21:52;2.00;;;1.50;;
36449;SDS011;22475;51.390;7.180;2023-05-08T13:24:19;1.80;;;1.70;;
36449;SDS011;22475;51.390;7.180;2023-05-08T13:26:45;2.65;;;1.27;;
36449;SDS011;22475;51.390;7.180;2023-05-08T13:29:13;1.65;;;1.55;;
36449;SDS011;22475;51.390;7.180;2023-05-08T13:31:41;1.83;;;1.50;;
36449;SDS011;22475;51.390;7.180;2023-05-08T13:34:07;1.45;;;1.40;;
36449;SDS011;22475;51.390;7.180;2023-05-08T13:36:34;1.38;;;1.38;;
36449;SDS011;22475;51.390;7.180;2023-05-08T13:39:01;1.67;;;1.58;;
36449;SDS011;22475;51.390;7.180;2023-05-08T13:41:28;1.52;;;1.42;;
36449;SDS011;22475;51.390;7.180;2023-05-08T13:43:55;1.52;;;1.42;;
36449;SDS011;22475;51.390;7.180;2023-05-08T13:46:23;2.13;;;1.92;;
36449;SDS011;22475;51.390;7.180;2023-05-08T13:48:50;1.95;;;1.77;;
36449;SDS011;22475;51.390;7.180;2023-05-08T13:51:17;1.65;;;1.55;;
36449;SDS011;22475;51.390;7.180;2023-05-08T13:53:43;1.70;;;1.60;;
36449;SDS011;22475;51.390;7.180;2023-05-08T13:56:10;1.80;;;1.70;;
36449;SDS011;22475;51.390;7.180;2023-05-08T13:58:37;2.58;;;1.40;;
36449;SDS011;22475;51.390;7.180;2023-05-08T14:01:04;1.77;;;1.67;;
36449;SDS011;22475;51.390;7.180;2023-05-08T14:03:32;1.45;;;1.35;;
36449;SDS011;22475;51.390;7.180;2023-05-08T14:05:59;1.30;;;1.30;;
36449;SDS011;22475;51.390;7.180;2023-05-08T14:08:25;1.88;;;1.77;;
36449;SDS011;22475;51.390;7.180;2023-05-08T14:10:52;1.77;;;1.67;;
36449;SDS011;22475;51.390;7.180;2023-05-08T14:13:19;1.80;;;1.70;;
36449;SDS011;22475;51.390;7.180;2023-05-08T14:15:45;1.80;;;1.70;;
36449;SDS011;22475;51.390;7.180;2023-05-08T14:18:12;1.48;;;1.38;;
36449;SDS011;22475;51.390;7.180;2023-05-08T14:20:41;2.08;;;1.98;;
36449;SDS011;22475;51.390;7.180;2023-05-08T14:23:07;2.22;;;2.03;;
36449;SDS011;22475;51.390;7.180;2023-05-08T14:25:34;1.38;;;1.27;;
36449;SDS011;22475;51.390;7.180;2023-05-08T14:28:01;2.20;;;1.77;;
36449;SDS011;22475;51.390;7.180;2023-05-08T14:30:27;1.92;;;1.83;;
36449;SDS011;22475;51.390;7.180;2023-05-08T14:32:54;1.73;;;1.60;;
36449;SDS011;22475;51.390;7.180;2023-05-08T14:35:21;3.92;;;1.88;;
36449;SDS011;22475;51.390;7.180;2023-05-08T14:37:49;1.63;;;1.52;;
36449;SDS011;22475;51.390;7.180;2023-05-08T14:40:16;1.58;;;1.48;;
36449;SDS011;22475;51.390;7.180;2023-05-08T14:42:43;1.35;;;1.25;;
36449;SDS011;22475;51.390;7.180;2023-05-08T14:45:10;1.73;;;1.63;;
36449;SDS011;22475;51.390;7.180;2023-05-08T14:47:36;1.70;;;1.60;;
36449;SDS011;22475;51.390;7.180;2023-05-08T14:50:04;1.67;;;1.58;;
36449;SDS011;22475;51.390;7.180;2023-05-08T14:52:31;1.75;;;1.58;;
36449;SDS011;22475;51.390;7.180;2023-05-08T14:54:59;1.65;;;1.55;;
36449;SDS011;22475;51.390;7.180;2023-05-08T14:57:25;2.25;;;1.92;;
36449;SDS011;22475;51.390;7.180;2023-05-08T14:59:52;1.73;;;1.63;;
36449;SDS011;22475;51.390;7.180;2023-05-08T15:02:20;1.27;;;1.17;;
36449;SDS011;22475;51.390;7.180;2023-05-08T15:04:47;1.95;;;1.73;;
36449;SDS011;22475;51.390;7.180;2023-05-08T15:07:14;2.38;;;1.70;;
36449;SDS011;22475;51.390;7.180;2023-05-08T15:09:41;2.28;;;2.10;;
36449;SDS011;22475;51.390;7.180;2023-05-08T15:12:09;1.73;;;1.63;;
36449;SDS011;22475;51.390;7.180;2023-05-08T15:14:36;1.67;;;1.58;;